createdAt,value
2022-09-02T00:01:52.481Z,7.99
2022-09-02T00:05:54.528Z,7.89
2022-09-02T00:09:57.046Z,7.96
2022-09-02T00:14:02.920Z,7.84
2022-09-02T00:18:07.013Z,7.76
2022-09-02T00:22:16.366Z,7.69
2022-09-02T00:26:19.554Z,7.67
2022-09-02T00:30:21.639Z,7.66
2022-09-02T00:34:24.555Z,7.70
2022-09-02T00:38:26.737Z,7.64
2022-09-02T00:42:29.198Z,7.56
2022-09-02T00:46:33.400Z,7.43
2022-09-02T00:50:37.325Z,7.45
2022-09-02T00:54:45.704Z,7.44
2022-09-02T00:58:51.240Z,7.46
2022-09-02T01:02:57.398Z,7.37
2022-09-02T01:06:59.970Z,7.34
2022-09-02T01:11:06.441Z,7.23
2022-09-02T01:15:12.044Z,7.18
2022-09-02T01:19:25.461Z,6.98
2022-09-02T01:23:32.381Z,7.00
2022-09-02T01:27:37.435Z,6.99
2022-09-02T01:31:39.908Z,6.95
2022-09-02T01:35:42.983Z,6.94
2022-09-02T01:39:49.946Z,6.87
2022-09-02T01:43:51.995Z,6.79
2022-09-02T01:47:54.485Z,6.88
2022-09-02T01:51:56.807Z,6.95
2022-09-02T01:56:00.071Z,6.92
2022-09-02T02:00:07.717Z,6.98
2022-09-02T02:04:16.296Z,6.92
2022-09-02T02:08:20.083Z,7.01
2022-09-02T02:12:22.804Z,6.98
2022-09-02T02:16:25.603Z,6.97
2022-09-02T02:20:28.024Z,6.96
2022-09-02T02:24:30.186Z,6.86
2022-09-02T02:28:32.489Z,6.80
2022-09-02T02:32:39.579Z,6.71
2022-09-02T02:36:43.119Z,6.58
2022-09-02T02:40:45.600Z,6.58
2022-09-02T02:44:48.034Z,6.47
2022-09-02T02:48:50.196Z,6.41
2022-09-02T02:52:55.046Z,6.44
2022-09-02T02:56:59.041Z,6.45
2022-09-02T03:01:02.064Z,6.39
2022-09-02T03:05:07.903Z,6.43
2022-09-02T03:09:10.718Z,6.49
2022-09-02T03:13:15.459Z,6.28
2022-09-02T03:17:20.147Z,6.12
2022-09-02T03:21:23.226Z,6.16
2022-09-02T03:25:32.242Z,6.28
2022-09-02T03:29:41.078Z,6.21
2022-09-02T03:33:44.107Z,6.18
2022-09-02T03:37:47.874Z,6.11
2022-09-02T03:41:50.491Z,6.04
2022-09-02T03:45:53.237Z,6.02
2022-09-02T03:49:57.402Z,6.02
2022-09-02T03:54:00.318Z,5.94
2022-09-02T03:58:07.857Z,6.15
2022-09-02T04:02:12.790Z,6.23
2022-09-02T04:06:20.145Z,6.20
2022-09-02T04:10:22.870Z,6.22
2022-09-02T04:14:25.752Z,6.28
2022-09-02T04:18:28.337Z,6.37
2022-09-02T04:22:35.419Z,6.37
2022-09-02T04:26:44.979Z,6.41
2022-09-02T04:30:49.822Z,6.54
2022-09-02T04:34:52.164Z,6.72
2022-09-02T04:38:56.233Z,6.88
2022-09-02T04:43:01.116Z,7.04
2022-09-02T04:47:03.967Z,7.17
2022-09-02T04:51:10.003Z,7.25
2022-09-02T04:55:13.751Z,7.43
2022-09-02T04:59:16.254Z,7.60
2022-09-02T05:03:28.590Z,7.73
2022-09-02T05:07:31.730Z,7.86
2022-09-02T05:11:35.345Z,8.01
2022-09-02T05:15:41.039Z,8.21
2022-09-02T05:19:46.008Z,8.40
2022-09-02T05:23:54.646Z,8.57
2022-09-02T05:27:58.599Z,8.76
2022-09-02T05:32:00.987Z,8.94
2022-09-02T05:36:05.150Z,9.08
2022-09-02T05:40:08.258Z,9.25
2022-09-02T05:44:13.411Z,9.44
2022-09-02T05:48:34.170Z,9.56
2022-09-02T05:52:36.624Z,9.78
2022-09-02T05:56:45.077Z,9.95
2022-09-02T06:00:49.800Z,10.16
2022-09-02T06:04:54.842Z,10.42
2022-09-02T06:09:01.017Z,10.64
2022-09-02T06:13:03.572Z,10.89
2022-09-02T06:17:09.433Z,11.24
2022-09-02T06:21:21.099Z,11.33
2022-09-02T06:25:26.831Z,11.58
2022-09-02T06:29:31.447Z,11.85
2022-09-02T06:33:35.463Z,12.21
2022-09-02T06:37:37.646Z,12.62
2022-09-02T06:41:41.998Z,12.82
2022-09-02T06:45:47.167Z,13.10
2022-09-02T06:49:49.877Z,13.18
2022-09-02T06:53:54.405Z,13.52
2022-09-02T06:57:58.955Z,13.52
2022-09-02T07:02:01.245Z,13.72
2022-09-02T07:06:09.791Z,13.88
2022-09-02T07:10:16.098Z,14.11
2022-09-02T07:14:25.183Z,14.24
2022-09-02T07:18:29.574Z,14.32
2022-09-02T07:22:32.306Z,14.59
2022-09-02T07:26:37.678Z,14.92
2022-09-02T07:30:43.411Z,15.11
2022-09-02T07:34:49.521Z,15.04
2022-09-02T07:38:53.848Z,15.21
2022-09-02T07:47:06.778Z,15.69
2022-09-02T07:51:12.958Z,15.72
2022-09-02T07:55:16.157Z,15.87
2022-09-02T07:59:21.882Z,15.91
2022-09-02T08:03:27.699Z,15.75
2022-09-02T08:07:32.126Z,16.03
2022-09-02T08:11:37.407Z,16.42
2022-09-02T08:15:40.186Z,16.49
2022-09-02T08:19:42.445Z,16.75
2022-09-02T08:23:48.140Z,16.99
2022-09-02T08:27:50.497Z,17.06
2022-09-02T08:31:54.133Z,16.89
2022-09-02T08:35:56.867Z,16.70
2022-09-02T08:39:59.218Z,16.90
2022-09-02T08:44:02.562Z,16.85
2022-09-02T08:48:45.379Z,16.94
2022-09-02T08:53:04.930Z,17.23
2022-09-02T08:57:08.000Z,17.53
2022-09-02T09:01:29.231Z,17.73
2022-09-02T09:06:00.892Z,17.50
2022-09-02T09:10:37.303Z,17.41
2022-09-02T09:14:51.354Z,17.58
2022-09-02T09:19:11.789Z,17.99
2022-09-02T09:23:20.062Z,18.03
2022-09-02T09:27:24.651Z,17.85
2022-09-02T09:31:32.626Z,18.07
2022-09-02T09:35:50.801Z,18.44
2022-09-02T09:39:53.797Z,18.11
2022-09-02T09:43:57.032Z,18.31
2022-09-02T09:48:17.209Z,18.43
2022-09-02T09:52:28.550Z,18.47
2022-09-02T09:56:37.311Z,18.75
2022-09-02T10:00:41.569Z,18.67
2022-09-02T10:04:44.189Z,18.41
2022-09-02T10:09:25.115Z,18.37
2022-09-02T10:13:32.520Z,18.52
2022-09-02T10:18:14.857Z,18.82
2022-09-02T10:22:48.565Z,19.11
2022-09-02T10:27:02.609Z,19.30
2022-09-02T10:31:38.966Z,19.27
2022-09-02T10:35:48.911Z,19.34
2022-09-02T10:40:17.418Z,19.28
2022-09-02T10:44:28.198Z,19.34
2022-09-02T10:49:04.761Z,19.37
2022-09-02T10:53:23.376Z,19.08
2022-09-02T10:57:31.579Z,18.98
2022-09-02T11:02:12.706Z,19.25
2022-09-02T11:06:35.303Z,19.66
2022-09-02T11:11:01.798Z,19.60
2022-09-02T11:15:10.739Z,19.73
2022-09-02T11:19:35.751Z,19.67
2022-09-02T11:24:04.366Z,19.51
2022-09-02T11:28:29.437Z,19.59
2022-09-02T11:32:39.442Z,20.12
2022-09-02T11:36:43.343Z,19.77
2022-09-02T11:41:32.889Z,19.81
2022-09-02T11:45:44.204Z,20.06
2022-09-02T11:50:16.858Z,20.37
2022-09-02T11:54:21.164Z,20.38
2022-09-02T11:58:34.947Z,20.12
2022-09-02T12:02:45.925Z,20.54
2022-09-02T12:07:08.651Z,20.24
2022-09-02T12:11:41.818Z,20.64
2022-09-02T12:15:45.619Z,20.60
2022-09-02T12:19:50.105Z,20.36
2022-09-02T12:23:55.211Z,20.25
2022-09-02T12:28:27.458Z,20.41
2022-09-02T12:32:45.391Z,19.87
2022-09-02T12:36:56.229Z,19.40
2022-09-02T12:41:07.889Z,19.07
2022-09-02T12:45:26.833Z,19.07
2022-09-02T12:49:33.802Z,19.35
2022-09-02T12:53:42.307Z,19.80
2022-09-02T12:57:47.536Z,19.98
2022-09-02T13:02:04.870Z,19.92
2022-09-02T13:06:26.739Z,20.37
2022-09-02T13:10:40.763Z,20.29
2022-09-02T13:15:07.440Z,20.38
2022-09-02T13:19:47.176Z,20.51
2022-09-02T13:24:02.433Z,20.56
2022-09-02T13:28:17.344Z,19.80
2022-09-02T13:32:19.402Z,19.93
2022-09-02T13:36:28.367Z,20.35
2022-09-02T13:40:33.914Z,20.56
2022-09-02T13:44:36.227Z,20.68
2022-09-02T13:48:40.577Z,20.83
2022-09-02T13:53:34.599Z,21.52
2022-09-02T13:57:12.131Z,21.94
2022-09-02T14:01:35.827Z,21.65
2022-09-02T14:05:45.344Z,21.31
2022-09-02T14:09:50.954Z,20.59
2022-09-02T14:13:54.901Z,20.31
2022-09-02T14:18:18.375Z,19.89
2022-09-02T14:22:28.925Z,19.52
2022-09-02T14:26:38.507Z,19.37
2022-09-02T14:30:41.628Z,19.04
2022-09-02T14:34:45.914Z,18.84
2022-09-02T14:38:47.921Z,18.72
2022-09-02T14:42:57.551Z,19.05
2022-09-02T14:47:15.402Z,19.73
2022-09-02T14:51:19.319Z,19.67
2022-09-02T14:55:41.286Z,19.48
2022-09-02T14:59:43.615Z,20.00
2022-09-02T15:03:47.439Z,20.35
2022-09-02T15:07:49.705Z,20.72
2022-09-02T15:11:53.927Z,21.28
2022-09-02T15:15:57.344Z,21.44
2022-09-02T15:19:59.442Z,21.31
2022-09-02T15:24:03.058Z,21.73
2022-09-02T15:28:05.275Z,23.51
2022-09-02T15:32:07.706Z,26.82
2022-09-02T15:36:13.148Z,27.01
2022-09-02T15:40:16.047Z,27.18
2022-09-02T15:44:18.485Z,24.59
2022-09-02T15:48:20.847Z,22.41
2022-09-02T15:52:23.793Z,21.00
2022-09-02T15:56:28.065Z,20.12
2022-09-02T16:00:32.158Z,19.31
2022-09-02T16:04:38.623Z,18.75
2022-09-02T16:08:40.883Z,18.46
2022-09-02T16:12:43.082Z,18.17
2022-09-02T16:16:45.692Z,17.85
2022-09-02T16:20:48.240Z,17.79
2022-09-02T16:24:51.119Z,17.61
2022-09-02T16:29:00.588Z,17.32
2022-09-02T16:33:02.687Z,17.13
2022-09-02T16:37:06.467Z,16.93
2022-09-02T16:41:43.909Z,16.75
2022-09-02T16:45:46.582Z,16.46
2022-09-02T16:49:48.672Z,16.17
2022-09-02T16:53:56.279Z,16.03
2022-09-02T16:58:03.185Z,15.86
2022-09-02T17:02:05.821Z,15.68
2022-09-02T17:06:09.007Z,15.46
2022-09-02T17:10:11.666Z,15.20
2022-09-02T17:14:16.907Z,15.10
2022-09-02T17:18:19.212Z,14.88
2022-09-02T17:22:21.281Z,14.68
2022-09-02T17:26:26.648Z,14.39
2022-09-02T17:30:28.987Z,14.20
2022-09-02T17:34:33.456Z,14.16
2022-09-02T17:38:35.552Z,13.91
2022-09-02T17:42:38.610Z,13.77
2022-09-02T17:46:42.108Z,13.77
2022-09-02T17:50:44.380Z,13.63
2022-09-02T17:54:49.284Z,13.49
2022-09-02T17:59:19.506Z,13.40
2022-09-02T18:03:39.523Z,13.13
2022-09-02T18:07:49.856Z,12.91
2022-09-02T18:11:53.114Z,12.92
2022-09-02T18:15:59.005Z,12.81
2022-09-02T18:20:16.602Z,12.76
2022-09-02T18:24:35.480Z,12.52
2022-09-02T18:28:58.828Z,12.38
2022-09-02T18:33:17.098Z,12.13
2022-09-02T18:37:40.209Z,12.11
2022-09-02T18:42:01.207Z,12.10
2022-09-02T18:46:05.451Z,11.86
2022-09-02T18:50:11.290Z,11.81
2022-09-02T18:54:30.866Z,11.52
2022-09-02T18:59:14.929Z,11.63
2022-09-02T19:03:17.466Z,11.56
2022-09-02T19:07:39.722Z,11.38
2022-09-02T19:11:42.240Z,11.35
2022-09-02T19:15:44.701Z,11.25
2022-09-02T19:19:46.743Z,11.23
2022-09-02T19:23:49.487Z,11.08
2022-09-02T19:27:55.151Z,10.99
2022-09-02T19:31:57.501Z,10.89
2022-09-02T19:35:59.797Z,10.78
2022-09-02T19:40:08.067Z,10.75
2022-09-02T19:44:12.684Z,10.58
2022-09-02T19:48:15.630Z,10.59
2022-09-02T19:52:21.049Z,10.44
2022-09-02T19:56:23.396Z,10.37
2022-09-02T20:00:25.643Z,10.42
2022-09-02T20:04:29.965Z,10.38
2022-09-02T20:08:32.654Z,10.41
2022-09-02T20:12:36.557Z,10.23
2022-09-02T20:16:38.805Z,10.13
2022-09-02T20:20:49.659Z,10.11
2022-09-02T20:24:51.595Z,9.93
2022-09-02T20:28:59.597Z,9.86
2022-09-02T20:33:16.747Z,9.87
2022-09-02T20:37:21.732Z,9.79
2022-09-02T20:41:34.049Z,9.73
2022-09-02T20:45:52.744Z,9.67
2022-09-02T20:50:18.463Z,9.50
2022-09-02T20:54:31.358Z,9.49
2022-09-02T20:58:50.915Z,9.41
2022-09-02T21:03:05.533Z,9.33
2022-09-02T21:07:26.688Z,9.32
2022-09-02T21:11:38.142Z,9.28
2022-09-02T21:15:55.771Z,9.22
2022-09-02T21:20:09.872Z,9.08
2022-09-02T21:24:37.632Z,9.02
2022-09-02T21:28:50.122Z,9.01
2022-09-02T21:32:57.658Z,8.93
2022-09-02T21:37:00.535Z,8.88
2022-09-02T21:41:20.610Z,8.77
2022-09-02T21:45:44.423Z,8.76
2022-09-02T21:50:24.024Z,8.63
2022-09-02T21:54:44.566Z,8.67
2022-09-02T21:58:49.522Z,8.59
2022-09-02T22:03:16.394Z,8.54
2022-09-02T22:07:26.428Z,8.35
2022-09-02T22:11:32.076Z,8.32
2022-09-02T22:16:01.516Z,8.25
2022-09-02T22:20:07.586Z,8.11
2022-09-02T22:24:10.167Z,8.14
2022-09-02T22:28:21.143Z,8.21
2022-09-02T22:37:34.338Z,8.02
2022-09-02T22:41:45.604Z,7.90
2022-09-02T22:46:24.851Z,7.82
2022-09-02T22:50:52.367Z,7.83
2022-09-02T22:54:56.862Z,7.72
2022-09-02T22:59:18.242Z,7.64
2022-09-02T23:03:55.210Z,7.62
2022-09-02T23:07:57.480Z,7.42
2022-09-02T23:12:13.267Z,7.51
2022-09-02T23:16:40.243Z,7.45
2022-09-02T23:20:51.443Z,7.45
2022-09-02T23:25:24.575Z,7.37
2022-09-02T23:29:29.772Z,7.11
2022-09-02T23:33:53.173Z,7.36
2022-09-02T23:38:16.619Z,7.12
2022-09-02T23:42:19.272Z,6.95
2022-09-02T23:46:52.034Z,7.10
2022-09-02T23:51:07.128Z,7.15
2022-09-02T23:55:09.524Z,7.13
2022-09-02T23:59:35.087Z,7.08
